createdAt,value
2019-01-26T00:01:32.153Z,34.00
2019-01-26T00:04:03.039Z,31.57
2019-01-26T00:06:36.736Z,33.03
2019-01-26T00:09:10.144Z,34.90
2019-01-26T00:11:47.566Z,31.23
2019-01-26T00:14:23.450Z,31.63
2019-01-26T00:16:56.301Z,28.30
2019-01-26T00:19:27.296Z,29.47
2019-01-26T00:21:58.337Z,30.77
2019-01-26T00:24:31.959Z,28.13
2019-01-26T00:27:02.570Z,27.07
2019-01-26T00:29:42.332Z,33.83
2019-01-26T00:32:14.304Z,29.13
2019-01-26T00:34:44.970Z,28.73
2019-01-26T00:37:15.994Z,30.77
2019-01-26T00:39:53.234Z,29.13
2019-01-26T00:42:25.503Z,33.13
2019-01-26T00:44:56.444Z,24.70
2019-01-26T00:47:27.315Z,25.03
2019-01-26T00:50:01.420Z,25.80
2019-01-26T00:52:56.292Z,30.67
2019-01-26T00:55:27.020Z,22.87
2019-01-26T00:57:58.150Z,22.97
2019-01-26T01:00:28.694Z,25.47
2019-01-26T01:02:59.555Z,20.73
2019-01-26T01:05:31.408Z,19.90
2019-01-26T01:08:05.111Z,19.30
2019-01-26T01:10:39.346Z,19.47
2019-01-26T01:13:10.230Z,19.47
2019-01-26T01:15:43.270Z,23.63
2019-01-26T01:18:23.114Z,25.77
2019-01-26T01:20:54.069Z,20.87
2019-01-26T01:23:25.415Z,22.10
2019-01-26T01:25:56.359Z,20.57
2019-01-26T01:28:27.221Z,23.47
2019-01-26T01:30:59.439Z,19.90
2019-01-26T01:33:30.276Z,22.37
2019-01-26T01:36:03.539Z,21.47
2019-01-26T01:38:34.733Z,22.97
2019-01-26T01:41:05.429Z,23.50
2019-01-26T01:43:36.124Z,20.23
2019-01-26T01:46:06.935Z,22.30
2019-01-26T01:48:37.716Z,18.87
2019-01-26T01:51:08.740Z,17.33
2019-01-26T01:53:40.886Z,21.57
2019-01-26T01:56:12.880Z,15.07
2019-01-26T01:58:43.638Z,19.23
2019-01-26T02:01:14.405Z,15.13
2019-01-26T02:03:48.108Z,18.90
2019-01-26T02:06:19.428Z,16.80
2019-01-26T02:08:52.997Z,20.70
2019-01-26T02:11:23.698Z,14.30
2019-01-26T02:13:56.133Z,17.67
2019-01-26T02:16:30.935Z,18.13
2019-01-26T02:18:59.649Z,19.03
2019-01-26T02:21:30.817Z,17.03
2019-01-26T02:24:01.565Z,15.40
2019-01-26T02:26:32.296Z,16.60
2019-01-26T02:29:02.851Z,15.43
2019-01-26T02:31:33.751Z,19.27
2019-01-26T02:34:04.418Z,16.53
2019-01-26T02:36:35.670Z,19.43
2019-01-26T02:39:08.387Z,15.50
2019-01-26T02:41:38.900Z,15.03
2019-01-26T02:44:10.323Z,18.47
2019-01-26T02:46:41.044Z,12.93
2019-01-26T02:49:11.788Z,16.43
2019-01-26T02:51:42.263Z,12.87
2019-01-26T02:54:13.058Z,13.90
2019-01-26T02:56:45.215Z,14.37
2019-01-26T02:59:15.777Z,14.07
2019-01-26T03:01:46.730Z,18.97
2019-01-26T03:04:17.560Z,13.97
2019-01-26T03:06:47.897Z,13.17
2019-01-26T03:09:18.510Z,13.87
2019-01-26T03:11:49.539Z,12.83
2019-01-26T03:14:20.420Z,13.27
2019-01-26T03:16:51.579Z,14.57
2019-01-26T03:19:22.598Z,13.40
2019-01-26T03:21:53.098Z,12.57
2019-01-26T03:24:24.274Z,11.60
2019-01-26T03:26:55.119Z,13.73
2019-01-26T03:29:25.858Z,14.33
2019-01-26T03:31:57.081Z,16.30
2019-01-26T03:34:28.011Z,12.37
2019-01-26T03:37:03.076Z,13.10
2019-01-26T03:39:33.499Z,12.87
2019-01-26T03:42:04.632Z,13.13
2019-01-26T03:44:35.576Z,16.20
2019-01-26T03:47:13.508Z,11.90
2019-01-26T03:49:38.919Z,13.57
2019-01-26T03:52:09.435Z,11.37
2019-01-26T03:54:40.057Z,10.53
2019-01-26T03:57:10.879Z,11.90
2019-01-26T03:59:41.741Z,10.43
2019-01-26T04:02:12.450Z,10.83
2019-01-26T04:04:43.187Z,12.33
2019-01-26T04:07:13.823Z,11.80
2019-01-26T04:09:44.801Z,11.23
2019-01-26T04:12:15.526Z,11.83
2019-01-26T04:14:46.433Z,11.00
2019-01-26T04:17:21.799Z,11.03
2019-01-26T04:19:49.415Z,9.90
2019-01-26T04:22:20.359Z,12.63
2019-01-26T04:24:51.093Z,10.73
2019-01-26T04:27:21.735Z,9.47
2019-01-26T04:29:52.470Z,10.73
2019-01-26T04:32:23.204Z,10.70
2019-01-26T04:34:54.039Z,9.20
2019-01-26T04:37:25.211Z,12.17
2019-01-26T04:39:55.844Z,7.63
2019-01-26T04:42:26.548Z,10.03
2019-01-26T04:44:57.268Z,9.10
2019-01-26T04:47:31.134Z,8.77
2019-01-26T04:50:02.057Z,8.37
2019-01-26T04:52:33.069Z,7.83
2019-01-26T04:55:03.914Z,8.43
2019-01-26T04:57:35.143Z,12.23
2019-01-26T05:00:09.690Z,8.43
2019-01-26T05:02:40.531Z,9.07
2019-01-26T05:05:11.666Z,8.20
2019-01-26T05:07:43.978Z,9.97
2019-01-26T05:10:15.912Z,9.63
2019-01-26T05:12:46.791Z,8.60
2019-01-26T05:15:17.660Z,9.73
2019-01-26T05:17:48.900Z,9.27
2019-01-26T05:20:21.649Z,7.17
2019-01-26T05:22:52.354Z,9.00
2019-01-26T05:25:23.098Z,8.77
2019-01-26T05:27:53.877Z,5.90
2019-01-26T05:30:26.813Z,7.80
2019-01-26T05:32:57.969Z,6.20
2019-01-26T05:35:28.601Z,7.40
2019-01-26T05:37:59.658Z,6.40
2019-01-26T05:40:30.770Z,8.03
2019-01-26T05:43:01.585Z,6.23
2019-01-26T05:45:35.290Z,7.00
2019-01-26T05:48:06.114Z,5.53
2019-01-26T05:50:36.979Z,6.93
2019-01-26T05:53:07.547Z,5.70
2019-01-26T05:55:38.364Z,7.63
2019-01-26T05:58:09.025Z,6.10
2019-01-26T06:00:39.499Z,5.90
2019-01-26T06:03:10.501Z,5.47
2019-01-26T06:05:41.615Z,5.13
2019-01-26T06:08:12.277Z,6.10
2019-01-26T06:10:45.159Z,6.17
2019-01-26T06:13:16.303Z,4.20
2019-01-26T06:15:47.107Z,4.27
2019-01-26T06:18:17.977Z,4.47
2019-01-26T06:20:48.769Z,6.27
2019-01-26T06:23:19.577Z,5.40
2019-01-26T06:25:50.338Z,4.57
2019-01-26T06:28:21.402Z,7.07
2019-01-26T06:30:52.189Z,4.70
2019-01-26T06:33:22.929Z,4.83
2019-01-26T06:35:53.656Z,5.70
2019-01-26T06:38:24.297Z,5.60
2019-01-26T06:40:55.024Z,4.03
2019-01-26T06:43:26.323Z,5.60
2019-01-26T06:45:57.356Z,4.87
2019-01-26T06:48:28.072Z,3.90
2019-01-26T06:51:07.618Z,4.03
2019-01-26T06:53:40.986Z,3.83
2019-01-26T06:56:19.088Z,3.40
2019-01-26T06:58:52.185Z,3.47
2019-01-26T07:01:24.562Z,4.17
2019-01-26T07:03:55.181Z,3.97
2019-01-26T07:06:34.256Z,4.77
2019-01-26T07:09:07.430Z,4.53
2019-01-26T07:11:42.443Z,3.53
2019-01-26T07:14:14.402Z,3.23
2019-01-26T07:16:45.218Z,3.97
2019-01-26T07:19:16.395Z,3.63
2019-01-26T07:21:47.073Z,3.50
2019-01-26T07:24:19.291Z,3.93
2019-01-26T07:26:51.780Z,3.00
2019-01-26T07:29:22.680Z,3.10
2019-01-26T07:31:56.221Z,3.23
2019-01-26T07:34:31.148Z,2.90
2019-01-26T07:37:01.980Z,2.50
2019-01-26T07:39:35.360Z,2.60
2019-01-26T07:42:06.351Z,2.33
2019-01-26T07:44:37.061Z,3.03
2019-01-26T07:47:08.100Z,2.60
2019-01-26T07:49:38.855Z,3.47
2019-01-26T07:52:09.886Z,3.50
2019-01-26T07:54:43.303Z,3.73
2019-01-26T07:57:20.677Z,3.13
2019-01-26T07:59:51.305Z,2.73
2019-01-26T08:02:27.047Z,2.60
2019-01-26T08:04:57.708Z,3.63
2019-01-26T08:07:30.716Z,3.53
2019-01-26T08:10:05.120Z,2.60
2019-01-26T08:12:38.759Z,3.97
2019-01-26T08:15:11.510Z,3.20
2019-01-26T08:17:45.023Z,3.43
2019-01-26T08:20:19.514Z,2.90
2019-01-26T08:22:52.829Z,3.27
2019-01-26T08:25:25.170Z,6.00
2019-01-26T08:27:58.740Z,6.50
2019-01-26T08:30:29.458Z,5.27
2019-01-26T08:33:00.616Z,2.73
2019-01-26T08:35:31.303Z,2.83
2019-01-26T08:38:08.021Z,2.70
2019-01-26T08:40:39.584Z,2.33
2019-01-26T08:43:10.289Z,2.20
2019-01-26T08:46:02.901Z,3.00
2019-01-26T08:48:43.360Z,3.00
2019-01-26T08:51:14.527Z,2.20
2019-01-26T08:53:45.045Z,3.00
2019-01-26T08:56:18.178Z,2.53
2019-01-26T08:58:51.233Z,3.00
2019-01-26T09:01:22.323Z,3.23
2019-01-26T09:04:21.549Z,2.43
2019-01-26T09:07:06.182Z,2.40
2019-01-26T09:09:39.361Z,3.87
2019-01-26T09:12:10.301Z,3.47
2019-01-26T09:14:44.284Z,2.60
2019-01-26T09:17:17.120Z,2.67
2019-01-26T09:19:51.667Z,3.07
2019-01-26T09:22:27.302Z,2.93
2019-01-26T09:24:57.955Z,3.43
2019-01-26T09:27:31.729Z,3.13
2019-01-26T09:30:03.549Z,3.40
2019-01-26T09:32:34.202Z,2.87
2019-01-26T09:35:06.451Z,3.33
2019-01-26T09:37:40.020Z,5.00
2019-01-26T09:40:21.446Z,2.37
2019-01-26T09:43:02.096Z,2.20
2019-01-26T09:45:33.857Z,2.80
2019-01-26T09:48:07.272Z,3.60
2019-01-26T09:50:41.521Z,3.40
2019-01-26T09:53:12.275Z,3.37
2019-01-26T09:55:46.434Z,3.83
2019-01-26T09:58:20.706Z,2.83
2019-01-26T10:00:51.432Z,3.13
2019-01-26T10:03:24.329Z,3.40
2019-01-26T10:05:57.808Z,4.37
2019-01-26T10:08:29.212Z,3.40
2019-01-26T10:11:06.670Z,3.00
2019-01-26T10:13:44.053Z,4.87
2019-01-26T10:16:14.740Z,2.90
2019-01-26T10:18:53.556Z,3.47
2019-01-26T10:21:25.876Z,3.67
2019-01-26T10:24:01.586Z,2.70
2019-01-26T10:26:32.498Z,3.53
2019-01-26T10:29:04.427Z,2.57
2019-01-26T10:31:35.223Z,2.43
2019-01-26T10:34:15.864Z,2.93
2019-01-26T10:36:53.451Z,2.80
2019-01-26T10:39:44.011Z,2.87
2019-01-26T10:42:25.097Z,2.67
2019-01-26T10:44:57.918Z,2.03
2019-01-26T10:47:31.746Z,2.47
2019-01-26T10:50:04.561Z,3.40
2019-01-26T10:52:38.897Z,1.97
2019-01-26T10:55:18.161Z,2.13
2019-01-26T10:57:49.248Z,2.43
2019-01-26T11:00:38.912Z,1.80
2019-01-26T11:03:12.247Z,1.60
2019-01-26T11:05:44.809Z,1.80
2019-01-26T11:08:17.307Z,1.63
2019-01-26T11:10:52.512Z,1.13
2019-01-26T11:13:29.962Z,2.43
2019-01-26T11:16:03.600Z,1.60
2019-01-26T11:18:41.531Z,1.27
2019-01-26T11:21:17.894Z,1.50
2019-01-26T11:23:53.092Z,1.43
2019-01-26T11:26:32.377Z,1.40
2019-01-26T11:29:10.499Z,2.23
2019-01-26T11:32:15.862Z,1.40
2019-01-26T11:35:00.407Z,2.03
2019-01-26T11:37:46.818Z,1.57
2019-01-26T11:40:22.189Z,1.57
2019-01-26T11:42:57.346Z,1.83
2019-01-26T11:45:50.242Z,1.90
2019-01-26T11:48:33.393Z,1.53
2019-01-26T11:51:26.679Z,2.90
2019-01-26T11:53:57.499Z,10.23
2019-01-26T11:56:47.035Z,1.93
2019-01-26T11:59:20.825Z,2.17
2019-01-26T12:02:02.193Z,2.27
2019-01-26T12:04:54.526Z,1.77
2019-01-26T12:07:31.131Z,3.23
2019-01-26T12:10:01.922Z,1.70
2019-01-26T12:12:32.632Z,2.10
2019-01-26T12:15:05.108Z,2.27
2019-01-26T12:17:41.451Z,1.73
2019-01-26T12:20:18.045Z,3.00
2019-01-26T12:22:54.301Z,1.67
2019-01-26T12:25:30.208Z,1.63
2019-01-26T12:28:01.811Z,1.97
2019-01-26T12:30:43.355Z,1.60
2019-01-26T12:33:31.526Z,1.70
2019-01-26T12:36:13.818Z,2.63
2019-01-26T12:38:46.516Z,2.20
2019-01-26T12:41:20.553Z,2.93
2019-01-26T12:43:51.753Z,2.00
2019-01-26T12:46:26.097Z,2.47
2019-01-26T12:48:59.899Z,1.60
2019-01-26T12:51:33.093Z,3.70
2019-01-26T12:54:06.519Z,1.70
2019-01-26T12:56:40.301Z,1.43
2019-01-26T12:59:11.484Z,1.57
2019-01-26T13:01:44.922Z,1.87
2019-01-26T13:04:17.242Z,1.63
2019-01-26T13:06:48.096Z,2.53
2019-01-26T13:09:18.677Z,2.97
2019-01-26T13:11:49.887Z,1.60
2019-01-26T13:14:20.504Z,3.47
2019-01-26T13:16:52.372Z,2.27
2019-01-26T13:19:23.307Z,1.90
2019-01-26T13:21:54.350Z,2.00
2019-01-26T13:24:26.843Z,1.63
2019-01-26T13:26:58.931Z,2.30
2019-01-26T13:29:32.103Z,3.17
2019-01-26T13:32:08.421Z,1.87
2019-01-26T13:34:47.257Z,2.40
2019-01-26T13:37:17.777Z,2.20
2019-01-26T13:39:50.460Z,1.50
2019-01-26T13:42:20.745Z,2.20
2019-01-26T13:44:52.860Z,1.40
2019-01-26T13:47:29.054Z,1.40
2019-01-26T13:50:03.437Z,1.50
2019-01-26T13:52:34.038Z,2.03
2019-01-26T13:55:15.933Z,1.63
2019-01-26T13:57:47.096Z,1.47
2019-01-26T14:00:21.975Z,1.63
2019-01-26T14:02:53.049Z,1.30
2019-01-26T14:05:23.830Z,1.80
2019-01-26T14:07:56.108Z,2.90
2019-01-26T14:10:31.865Z,2.10
2019-01-26T14:13:04.213Z,1.60
2019-01-26T14:15:36.976Z,1.70
2019-01-26T14:18:07.478Z,1.47
2019-01-26T14:20:37.917Z,2.03
2019-01-26T14:23:08.758Z,1.47
2019-01-26T14:25:40.888Z,1.53
2019-01-26T14:28:24.230Z,3.87
2019-01-26T14:30:58.285Z,1.60
2019-01-26T14:33:36.275Z,1.50
2019-01-26T14:36:10.009Z,2.37
2019-01-26T14:38:45.477Z,1.73
2019-01-26T14:41:16.227Z,1.93
2019-01-26T14:43:46.859Z,2.07
2019-01-26T14:46:18.723Z,1.50
2019-01-26T14:48:49.886Z,1.60
2019-01-26T14:51:23.824Z,1.80
2019-01-26T14:53:53.008Z,1.57
2019-01-26T14:56:26.863Z,2.43
2019-01-26T14:59:00.212Z,2.67
2019-01-26T15:01:32.527Z,2.57
2019-01-26T15:04:12.117Z,1.37
2019-01-26T15:06:47.530Z,3.07
2019-01-26T15:09:19.706Z,1.80
2019-01-26T15:11:50.625Z,2.10
2019-01-26T15:14:23.723Z,1.87
2019-01-26T15:16:55.172Z,2.37
2019-01-26T15:19:28.815Z,1.60
2019-01-26T15:22:03.686Z,1.67
2019-01-26T15:24:35.755Z,2.67
2019-01-26T15:27:06.775Z,2.43
2019-01-26T15:29:39.788Z,1.57
2019-01-26T15:32:20.186Z,2.00
2019-01-26T15:34:51.862Z,2.20
2019-01-26T15:37:22.955Z,2.33
2019-01-26T15:39:53.959Z,1.93
2019-01-26T15:42:30.932Z,2.57
2019-01-26T15:45:01.505Z,2.67
2019-01-26T15:47:35.169Z,2.83
2019-01-26T15:50:13.156Z,2.80
2019-01-26T15:52:44.014Z,3.20
2019-01-26T15:55:16.927Z,3.63
2019-01-26T15:57:51.833Z,3.70
2019-01-26T16:00:26.629Z,4.07
2019-01-26T16:03:01.555Z,3.97
2019-01-26T16:05:32.013Z,3.10
2019-01-26T16:08:04.838Z,3.07
2019-01-26T16:10:38.189Z,2.73
2019-01-26T16:13:11.990Z,3.03
2019-01-26T16:15:42.615Z,3.00
2019-01-26T16:18:15.270Z,2.93
2019-01-26T16:20:47.315Z,3.30
2019-01-26T16:23:22.346Z,3.30
2019-01-26T16:25:53.150Z,3.50
2019-01-26T16:28:33.114Z,3.67
2019-01-26T16:31:06.599Z,3.40
2019-01-26T16:33:43.109Z,4.33
2019-01-26T16:36:15.508Z,3.73
2019-01-26T16:38:52.516Z,3.63
2019-01-26T16:41:23.148Z,4.73
2019-01-26T16:44:07.839Z,4.57
2019-01-26T16:46:38.443Z,4.40
2019-01-26T16:49:09.131Z,3.53
2019-01-26T16:51:53.532Z,3.70
2019-01-26T16:57:21.210Z,5.23
2019-01-26T16:59:53.994Z,4.43
2019-01-26T17:02:26.167Z,5.40
2019-01-26T17:04:56.921Z,8.87
2019-01-26T17:07:27.656Z,5.43
2019-01-26T17:09:58.390Z,6.10
2019-01-26T17:12:31.922Z,8.13
2019-01-26T17:15:02.595Z,6.50
2019-01-26T17:17:36.691Z,6.97
2019-01-26T17:20:20.235Z,6.77
2019-01-26T17:22:55.162Z,7.27
2019-01-26T17:25:25.926Z,6.83
2019-01-26T17:28:00.829Z,6.77
2019-01-26T17:30:43.898Z,8.50
2019-01-26T17:33:17.980Z,8.40
2019-01-26T17:35:55.317Z,7.33
2019-01-26T17:38:29.876Z,8.17
2019-01-26T17:41:00.627Z,7.53
2019-01-26T17:43:37.408Z,7.77
2019-01-26T17:46:16.896Z,9.90
2019-01-26T17:48:47.560Z,9.30
2019-01-26T17:51:18.026Z,9.37
2019-01-26T17:53:54.661Z,10.37
2019-01-26T17:56:26.881Z,10.30
2019-01-26T17:59:06.429Z,8.70
2019-01-26T18:01:41.908Z,10.63
2019-01-26T18:04:18.086Z,9.40
2019-01-26T18:06:53.311Z,10.10
2019-01-26T18:09:25.713Z,12.67
2019-01-26T18:11:59.700Z,14.17
2019-01-26T18:14:32.100Z,11.60
2019-01-26T18:17:04.370Z,11.93
2019-01-26T18:19:43.529Z,12.27
2019-01-26T18:22:14.349Z,12.57
2019-01-26T18:24:45.113Z,13.53
2019-01-26T18:27:17.340Z,12.70
2019-01-26T18:29:48.195Z,9.33
2019-01-26T18:32:31.457Z,10.47
2019-01-26T18:35:05.317Z,9.47
2019-01-26T18:37:40.013Z,11.80
2019-01-26T18:40:26.153Z,10.80
2019-01-26T18:42:59.506Z,8.17
2019-01-26T18:45:33.008Z,9.50
2019-01-26T18:48:06.498Z,8.13
2019-01-26T18:50:42.253Z,9.10
2019-01-26T18:53:15.028Z,9.70
2019-01-26T18:55:53.191Z,9.40
2019-01-26T18:58:29.742Z,8.87
2019-01-26T19:01:00.467Z,8.97
2019-01-26T19:04:05.697Z,8.53
2019-01-26T19:06:40.596Z,6.77
2019-01-26T19:09:20.814Z,7.33
2019-01-26T19:11:51.493Z,7.30
2019-01-26T19:14:26.351Z,6.13
2019-01-26T19:16:59.092Z,7.10
2019-01-26T19:19:32.537Z,6.07
2019-01-26T19:22:10.819Z,5.37
2019-01-26T19:24:41.628Z,5.97
2019-01-26T19:27:19.670Z,7.27
2019-01-26T19:29:50.514Z,6.17
2019-01-26T19:32:31.318Z,6.23
2019-01-26T19:35:03.665Z,7.23
2019-01-26T19:37:41.788Z,7.80
2019-01-26T19:40:21.760Z,5.93
2019-01-26T19:42:56.176Z,7.47
2019-01-26T19:45:32.148Z,9.20
2019-01-26T19:48:07.207Z,5.87
2019-01-26T19:50:41.084Z,5.53
2019-01-26T19:53:25.684Z,7.03
2019-01-26T19:56:01.130Z,5.60
2019-01-26T19:58:37.045Z,5.70
2019-01-26T20:01:15.189Z,5.43
2019-01-26T20:03:51.973Z,5.33
2019-01-26T20:06:35.236Z,5.67
2019-01-26T20:09:09.491Z,6.03
2019-01-26T20:11:48.163Z,5.20
2019-01-26T20:14:23.072Z,7.93
2019-01-26T20:16:59.424Z,5.87
2019-01-26T20:19:33.487Z,4.63
2019-01-26T20:22:08.006Z,5.40
2019-01-26T20:24:39.535Z,6.27
2019-01-26T20:27:23.819Z,4.43
2019-01-26T20:29:54.410Z,5.60
2019-01-26T20:32:36.898Z,4.60
2019-01-26T20:35:06.654Z,4.33
2019-01-26T20:37:40.707Z,3.37
2019-01-26T20:40:17.920Z,3.87
2019-01-26T20:42:53.257Z,4.67
2019-01-26T20:45:28.054Z,4.47
2019-01-26T20:48:02.188Z,5.10
2019-01-26T20:50:40.837Z,5.17
2019-01-26T20:53:14.318Z,5.57
2019-01-26T20:55:45.133Z,5.60
2019-01-26T20:58:24.141Z,5.43
2019-01-26T21:00:57.204Z,5.00
2019-01-26T21:03:30.566Z,4.63
2019-01-26T21:06:05.827Z,4.97
2019-01-26T21:08:37.603Z,4.27
2019-01-26T21:11:15.330Z,4.77
2019-01-26T21:13:49.929Z,5.23
2019-01-26T21:16:23.696Z,4.60
2019-01-26T21:18:59.581Z,5.63
2019-01-26T21:21:32.852Z,5.10
2019-01-26T21:24:08.915Z,5.43
2019-01-26T21:27:19.942Z,5.87
2019-01-26T21:30:04.475Z,7.30
2019-01-26T21:32:53.832Z,5.97
2019-01-26T21:35:35.561Z,5.50
2019-01-26T21:38:19.224Z,6.77
2019-01-26T21:41:30.546Z,5.80
2019-01-26T21:44:18.568Z,7.90
2019-01-26T21:47:12.360Z,5.77
2019-01-26T21:49:54.722Z,5.80
2019-01-26T21:52:43.335Z,6.00
2019-01-26T21:55:27.981Z,5.47
2019-01-26T21:58:13.331Z,5.87
2019-01-26T22:00:52.242Z,6.33
2019-01-26T22:03:53.812Z,5.23
2019-01-26T22:06:53.596Z,5.17
2019-01-26T22:09:32.315Z,5.03
2019-01-26T22:12:09.607Z,4.97
2019-01-26T22:14:58.682Z,5.37
2019-01-26T22:18:09.088Z,5.13
2019-01-26T22:20:41.217Z,5.33
2019-01-26T22:23:15.039Z,4.83
2019-01-26T22:25:48.610Z,5.40
2019-01-26T22:28:45.976Z,5.17
2019-01-26T22:31:18.246Z,5.77
2019-01-26T22:33:51.542Z,5.93
2019-01-26T22:36:22.606Z,5.00
2019-01-26T22:38:58.130Z,4.57
2019-01-26T22:41:31.688Z,5.03
2019-01-26T22:44:03.187Z,4.47
2019-01-26T22:46:44.223Z,4.67
2019-01-26T22:49:23.847Z,5.03
2019-01-26T22:51:56.577Z,4.77
2019-01-26T22:54:27.536Z,4.57
2019-01-26T22:57:00.412Z,5.10
2019-01-26T22:59:33.869Z,4.43
2019-01-26T23:02:05.577Z,4.23
2019-01-26T23:05:32.490Z,4.43
2019-01-26T23:08:16.096Z,3.50
2019-01-26T23:11:12.357Z,3.70
2019-01-26T23:14:10.504Z,3.97
2019-01-26T23:17:18.986Z,3.53
2019-01-26T23:20:23.095Z,3.40
2019-01-26T23:23:34.228Z,3.77
2019-01-26T23:26:20.028Z,4.03
2019-01-26T23:29:26.987Z,3.43
2019-01-26T23:32:04.437Z,5.13
2019-01-26T23:34:43.779Z,3.07
2019-01-26T23:37:18.580Z,3.50
2019-01-26T23:39:49.354Z,3.27
2019-01-26T23:42:20.215Z,3.53
2019-01-26T23:44:50.916Z,2.93
2019-01-26T23:47:26.261Z,4.17
2019-01-26T23:49:59.809Z,3.97
2019-01-26T23:52:32.235Z,3.80
2019-01-26T23:55:06.122Z,4.00
2019-01-26T23:57:38.339Z,4.37
